sensor_id;sensor_type;location;lat;lon;timestamp;P1;durP1;ratioP1;P2;durP2;ratioP2
69419;SDS011;56612;52.030;113.524;2023-03-12T00:00:47;22.75;;;8.88;;
69419;SDS011;56612;52.030;113.524;2023-03-12T00:03:51;21.05;;;7.97;;
69419;SDS011;56612;52.030;113.524;2023-03-12T00:06:58;38.90;;;10.60;;
69419;SDS011;56612;52.030;113.524;2023-03-12T00:10:03;48.90;;;11.38;;
69419;SDS011;56612;52.030;113.524;2023-03-12T00:13:07;100.07;;;34.72;;
69419;SDS011;56612;52.030;113.524;2023-03-12T00:16:12;53.90;;;16.35;;
69419;SDS011;56612;52.030;113.524;2023-03-12T00:19:17;40.60;;;12.87;;
69419;SDS011;56612;52.030;113.524;2023-03-12T00:22:21;47.53;;;14.75;;
69419;SDS011;56612;52.030;113.524;2023-03-12T00:25:25;44.50;;;14.20;;
69419;SDS011;56612;52.030;113.524;2023-03-12T00:28:29;47.17;;;15.13;;
69419;SDS011;56612;52.030;113.524;2023-03-12T00:31:33;40.23;;;12.73;;
69419;SDS011;56612;52.030;113.524;2023-03-12T00:34:37;43.38;;;13.15;;
69419;SDS011;56612;52.030;113.524;2023-03-12T00:37:41;28.35;;;10.98;;
69419;SDS011;56612;52.030;113.524;2023-03-12T00:40:45;26.83;;;10.70;;
69419;SDS011;56612;52.030;113.524;2023-03-12T00:43:49;40.47;;;13.60;;
69419;SDS011;56612;52.030;113.524;2023-03-12T00:46:54;56.17;;;18.52;;
69419;SDS011;56612;52.030;113.524;2023-03-12T00:49:57;56.50;;;17.95;;
69419;SDS011;56612;52.030;113.524;2023-03-12T00:53:01;57.00;;;18.30;;
69419;SDS011;56612;52.030;113.524;2023-03-12T00:56:06;56.80;;;17.58;;
69419;SDS011;56612;52.030;113.524;2023-03-12T00:59:10;75.43;;;18.38;;
69419;SDS011;56612;52.030;113.524;2023-03-12T01:02:14;63.50;;;16.40;;
69419;SDS011;56612;52.030;113.524;2023-03-12T01:05:18;44.30;;;12.83;;
69419;SDS011;56612;52.030;113.524;2023-03-12T01:08:22;58.38;;;18.27;;
69419;SDS011;56612;52.030;113.524;2023-03-12T01:11:26;43.25;;;13.18;;
69419;SDS011;56612;52.030;113.524;2023-03-12T01:14:31;31.23;;;11.65;;
69419;SDS011;56612;52.030;113.524;2023-03-12T01:17:36;33.97;;;10.90;;
69419;SDS011;56612;52.030;113.524;2023-03-12T01:20:39;48.03;;;14.00;;
69419;SDS011;56612;52.030;113.524;2023-03-12T01:23:44;36.38;;;13.00;;
69419;SDS011;56612;52.030;113.524;2023-03-12T01:26:48;47.50;;;12.77;;
69419;SDS011;56612;52.030;113.524;2023-03-12T01:29:52;43.28;;;12.07;;
69419;SDS011;56612;52.030;113.524;2023-03-12T01:32:57;45.22;;;11.85;;
69419;SDS011;56612;52.030;113.524;2023-03-12T01:36:01;35.38;;;9.70;;
69419;SDS011;56612;52.030;113.524;2023-03-12T01:39:05;27.85;;;9.02;;
69419;SDS011;56612;52.030;113.524;2023-03-12T01:42:10;19.20;;;7.50;;
69419;SDS011;56612;52.030;113.524;2023-03-12T01:52:08;36.25;;;9.00;;
69419;SDS011;56612;52.030;113.524;2023-03-12T01:55:20;30.08;;;7.75;;
69419;SDS011;56612;52.030;113.524;2023-03-12T01:58:24;23.33;;;6.60;;
69419;SDS011;56612;52.030;113.524;2023-03-12T02:01:30;36.45;;;8.00;;
69419;SDS011;56612;52.030;113.524;2023-03-12T02:04:34;24.80;;;7.97;;
69419;SDS011;56612;52.030;113.524;2023-03-12T02:07:40;20.77;;;6.35;;
69419;SDS011;56612;52.030;113.524;2023-03-12T02:10:44;27.13;;;7.00;;
69419;SDS011;56612;52.030;113.524;2023-03-12T02:13:49;21.17;;;7.77;;
69419;SDS011;56612;52.030;113.524;2023-03-12T02:16:53;18.08;;;6.55;;
69419;SDS011;56612;52.030;113.524;2023-03-12T02:26:20;26.98;;;7.00;;
69419;SDS011;56612;52.030;113.524;2023-03-12T02:29:27;20.87;;;5.67;;
69419;SDS011;56612;52.030;113.524;2023-03-12T02:32:35;18.70;;;5.20;;
69419;SDS011;56612;52.030;113.524;2023-03-12T02:35:42;16.88;;;4.60;;
69419;SDS011;56612;52.030;113.524;2023-03-12T02:38:49;21.17;;;5.72;;
69419;SDS011;56612;52.030;113.524;2023-03-12T02:41:55;17.15;;;5.15;;
69419;SDS011;56612;52.030;113.524;2023-03-12T02:45:01;17.07;;;5.03;;
69419;SDS011;56612;52.030;113.524;2023-03-12T02:48:07;18.97;;;4.60;;
69419;SDS011;56612;52.030;113.524;2023-03-12T02:51:12;16.17;;;4.55;;
69419;SDS011;56612;52.030;113.524;2023-03-12T02:54:16;11.07;;;3.60;;
69419;SDS011;56612;52.030;113.524;2023-03-12T02:57:21;11.07;;;3.00;;
69419;SDS011;56612;52.030;113.524;2023-03-12T03:00:25;11.40;;;2.90;;
69419;SDS011;56612;52.030;113.524;2023-03-12T03:03:29;8.00;;;2.87;;
69419;SDS011;56612;52.030;113.524;2023-03-12T03:06:33;7.40;;;2.28;;
69419;SDS011;56612;52.030;113.524;2023-03-12T03:09:39;6.65;;;2.20;;
69419;SDS011;56612;52.030;113.524;2023-03-12T03:12:43;12.20;;;3.00;;
69419;SDS011;56612;52.030;113.524;2023-03-12T03:15:47;10.83;;;2.50;;
69419;SDS011;56612;52.030;113.524;2023-03-12T03:18:51;10.30;;;3.20;;
69419;SDS011;56612;52.030;113.524;2023-03-12T03:21:55;13.38;;;4.35;;
69419;SDS011;56612;52.030;113.524;2023-03-12T03:24:59;13.85;;;3.95;;
69419;SDS011;56612;52.030;113.524;2023-03-12T03:28:03;11.13;;;5.22;;
69419;SDS011;56612;52.030;113.524;2023-03-12T03:31:07;12.13;;;2.93;;
69419;SDS011;56612;52.030;113.524;2023-03-12T03:34:14;14.97;;;3.53;;
69419;SDS011;56612;52.030;113.524;2023-03-12T03:37:18;11.57;;;3.00;;
69419;SDS011;56612;52.030;113.524;2023-03-12T03:40:22;7.07;;;1.92;;
69419;SDS011;56612;52.030;113.524;2023-03-12T03:43:25;8.63;;;2.80;;
69419;SDS011;56612;52.030;113.524;2023-03-12T03:46:30;11.17;;;3.00;;
69419;SDS011;56612;52.030;113.524;2023-03-12T03:49:38;6.50;;;2.50;;
69419;SDS011;56612;52.030;113.524;2023-03-12T03:52:42;10.23;;;2.80;;
69419;SDS011;56612;52.030;113.524;2023-03-12T03:55:46;7.63;;;3.08;;
69419;SDS011;56612;52.030;113.524;2023-03-12T03:58:50;12.98;;;3.00;;
69419;SDS011;56612;52.030;113.524;2023-03-12T04:01:56;8.00;;;2.70;;
69419;SDS011;56612;52.030;113.524;2023-03-12T04:05:00;8.03;;;3.20;;
69419;SDS011;56612;52.030;113.524;2023-03-12T04:08:04;10.65;;;2.97;;
69419;SDS011;56612;52.030;113.524;2023-03-12T04:11:10;8.45;;;2.90;;
69419;SDS011;56612;52.030;113.524;2023-03-12T04:14:19;7.60;;;2.45;;
69419;SDS011;56612;52.030;113.524;2023-03-12T04:17:24;9.80;;;2.10;;
69419;SDS011;56612;52.030;113.524;2023-03-12T04:20:30;8.03;;;2.27;;
69419;SDS011;56612;52.030;113.524;2023-03-12T04:23:34;7.78;;;2.15;;
69419;SDS011;56612;52.030;113.524;2023-03-12T04:26:38;9.77;;;2.25;;
69419;SDS011;56612;52.030;113.524;2023-03-12T04:29:42;10.65;;;3.42;;
69419;SDS011;56612;52.030;113.524;2023-03-12T04:32:47;13.70;;;2.70;;
69419;SDS011;56612;52.030;113.524;2023-03-12T04:35:52;8.17;;;2.97;;
69419;SDS011;56612;52.030;113.524;2023-03-12T04:38:56;6.57;;;2.50;;
69419;SDS011;56612;52.030;113.524;2023-03-12T04:42:04;9.55;;;2.28;;
69419;SDS011;56612;52.030;113.524;2023-03-12T04:45:09;8.35;;;2.05;;
69419;SDS011;56612;52.030;113.524;2023-03-12T04:48:18;10.07;;;2.30;;
69419;SDS011;56612;52.030;113.524;2023-03-12T04:51:24;9.10;;;2.07;;
69419;SDS011;56612;52.030;113.524;2023-03-12T04:54:28;7.03;;;2.42;;
69419;SDS011;56612;52.030;113.524;2023-03-12T04:57:34;8.95;;;3.20;;
69419;SDS011;56612;52.030;113.524;2023-03-12T05:00:39;8.73;;;2.00;;
69419;SDS011;56612;52.030;113.524;2023-03-12T05:03:44;12.57;;;2.43;;
69419;SDS011;56612;52.030;113.524;2023-03-12T05:06:49;7.93;;;2.33;;
69419;SDS011;56612;52.030;113.524;2023-03-12T05:09:52;6.22;;;2.20;;
69419;SDS011;56612;52.030;113.524;2023-03-12T05:12:57;8.25;;;2.40;;
69419;SDS011;56612;52.030;113.524;2023-03-12T05:16:01;4.60;;;1.77;;
69419;SDS011;56612;52.030;113.524;2023-03-12T05:19:05;8.60;;;2.77;;
69419;SDS011;56612;52.030;113.524;2023-03-12T05:22:09;14.93;;;6.37;;
69419;SDS011;56612;52.030;113.524;2023-03-12T05:25:14;5.80;;;2.30;;
69419;SDS011;56612;52.030;113.524;2023-03-12T05:28:18;8.25;;;2.30;;
69419;SDS011;56612;52.030;113.524;2023-03-12T05:31:22;12.50;;;2.35;;
69419;SDS011;56612;52.030;113.524;2023-03-12T05:34:27;14.43;;;2.30;;
69419;SDS011;56612;52.030;113.524;2023-03-12T05:37:33;6.70;;;2.20;;
69419;SDS011;56612;52.030;113.524;2023-03-12T05:40:37;5.32;;;1.80;;
69419;SDS011;56612;52.030;113.524;2023-03-12T05:43:41;7.55;;;2.17;;
69419;SDS011;56612;52.030;113.524;2023-03-12T05:46:44;7.70;;;1.58;;
69419;SDS011;56612;52.030;113.524;2023-03-12T05:49:49;7.57;;;2.60;;
69419;SDS011;56612;52.030;113.524;2023-03-12T05:52:52;14.53;;;2.60;;
69419;SDS011;56612;52.030;113.524;2023-03-12T05:56:01;6.10;;;2.00;;
69419;SDS011;56612;52.030;113.524;2023-03-12T05:59:09;4.57;;;1.58;;
69419;SDS011;56612;52.030;113.524;2023-03-12T06:02:15;10.57;;;1.90;;
69419;SDS011;56612;52.030;113.524;2023-03-12T06:05:19;6.00;;;2.10;;
69419;SDS011;56612;52.030;113.524;2023-03-12T06:08:23;7.63;;;2.13;;
69419;SDS011;56612;52.030;113.524;2023-03-12T06:11:27;5.40;;;1.88;;
69419;SDS011;56612;52.030;113.524;2023-03-12T06:14:33;5.03;;;1.70;;
69419;SDS011;56612;52.030;113.524;2023-03-12T06:17:36;12.88;;;2.47;;
69419;SDS011;56612;52.030;113.524;2023-03-12T06:20:40;7.77;;;2.33;;
69419;SDS011;56612;52.030;113.524;2023-03-12T06:23:45;7.33;;;1.73;;
69419;SDS011;56612;52.030;113.524;2023-03-12T06:26:54;9.40;;;2.08;;
69419;SDS011;56612;52.030;113.524;2023-03-12T06:29:58;6.85;;;1.85;;
69419;SDS011;56612;52.030;113.524;2023-03-12T06:33:02;6.72;;;2.00;;
69419;SDS011;56612;52.030;113.524;2023-03-12T06:36:07;6.53;;;1.90;;
69419;SDS011;56612;52.030;113.524;2023-03-12T06:39:12;4.37;;;1.50;;
69419;SDS011;56612;52.030;113.524;2023-03-12T06:42:16;10.35;;;2.22;;
69419;SDS011;56612;52.030;113.524;2023-03-12T06:45:22;6.13;;;2.55;;
69419;SDS011;56612;52.030;113.524;2023-03-12T06:48:26;8.35;;;2.50;;
69419;SDS011;56612;52.030;113.524;2023-03-12T06:51:31;9.50;;;3.00;;
69419;SDS011;56612;52.030;113.524;2023-03-12T06:54:35;5.50;;;1.60;;
69419;SDS011;56612;52.030;113.524;2023-03-12T06:57:39;6.88;;;2.00;;
69419;SDS011;56612;52.030;113.524;2023-03-12T07:00:42;9.32;;;2.30;;
69419;SDS011;56612;52.030;113.524;2023-03-12T07:03:47;7.13;;;1.75;;
69419;SDS011;56612;52.030;113.524;2023-03-12T07:06:50;5.97;;;2.10;;
69419;SDS011;56612;52.030;113.524;2023-03-12T07:09:55;5.33;;;1.83;;
69419;SDS011;56612;52.030;113.524;2023-03-12T07:12:58;5.15;;;1.40;;
69419;SDS011;56612;52.030;113.524;2023-03-12T07:16:03;8.90;;;2.78;;
69419;SDS011;56612;52.030;113.524;2023-03-12T07:19:07;8.45;;;2.20;;
69419;SDS011;56612;52.030;113.524;2023-03-12T07:22:11;7.33;;;1.73;;
69419;SDS011;56612;52.030;113.524;2023-03-12T07:25:14;10.10;;;2.27;;
69419;SDS011;56612;52.030;113.524;2023-03-12T07:28:20;10.70;;;2.88;;
69419;SDS011;56612;52.030;113.524;2023-03-12T07:31:25;10.15;;;2.83;;
69419;SDS011;56612;52.030;113.524;2023-03-12T07:34:29;11.60;;;2.30;;
69419;SDS011;56612;52.030;113.524;2023-03-12T07:37:33;19.33;;;3.00;;
69419;SDS011;56612;52.030;113.524;2023-03-12T07:40:37;7.60;;;2.23;;
69419;SDS011;56612;52.030;113.524;2023-03-12T07:43:41;7.57;;;2.65;;
69419;SDS011;56612;52.030;113.524;2023-03-12T07:46:45;8.60;;;2.50;;
69419;SDS011;56612;52.030;113.524;2023-03-12T07:49:49;7.78;;;3.22;;
69419;SDS011;56612;52.030;113.524;2023-03-12T07:52:53;8.60;;;2.90;;
69419;SDS011;56612;52.030;113.524;2023-03-12T07:55:56;10.70;;;3.70;;
69419;SDS011;56612;52.030;113.524;2023-03-12T07:59:00;10.88;;;3.17;;
69419;SDS011;56612;52.030;113.524;2023-03-12T08:02:04;13.43;;;4.00;;
69419;SDS011;56612;52.030;113.524;2023-03-12T08:05:08;11.73;;;2.83;;
69419;SDS011;56612;52.030;113.524;2023-03-12T08:08:12;10.20;;;2.43;;
69419;SDS011;56612;52.030;113.524;2023-03-12T08:11:17;8.10;;;2.40;;
69419;SDS011;56612;52.030;113.524;2023-03-12T08:14:21;16.40;;;3.45;;
69419;SDS011;56612;52.030;113.524;2023-03-12T08:17:24;12.25;;;3.15;;
69419;SDS011;56612;52.030;113.524;2023-03-12T08:20:28;13.55;;;3.85;;
69419;SDS011;56612;52.030;113.524;2023-03-12T08:23:33;10.73;;;3.00;;
69419;SDS011;56612;52.030;113.524;2023-03-12T08:26:37;6.93;;;2.10;;
69419;SDS011;56612;52.030;113.524;2023-03-12T08:29:41;10.88;;;3.13;;
69419;SDS011;56612;52.030;113.524;2023-03-12T08:32:45;7.68;;;2.40;;
69419;SDS011;56612;52.030;113.524;2023-03-12T08:35:49;7.10;;;2.22;;
69419;SDS011;56612;52.030;113.524;2023-03-12T08:38:53;6.13;;;2.80;;
69419;SDS011;56612;52.030;113.524;2023-03-12T08:41:57;6.57;;;2.57;;
69419;SDS011;56612;52.030;113.524;2023-03-12T08:45:01;11.63;;;2.97;;
69419;SDS011;56612;52.030;113.524;2023-03-12T08:48:05;10.38;;;3.00;;
69419;SDS011;56612;52.030;113.524;2023-03-12T08:51:09;9.75;;;3.50;;
69419;SDS011;56612;52.030;113.524;2023-03-12T08:54:18;9.40;;;3.00;;
69419;SDS011;56612;52.030;113.524;2023-03-12T08:57:31;9.47;;;3.63;;
69419;SDS011;56612;52.030;113.524;2023-03-12T09:00:34;14.38;;;3.85;;
69419;SDS011;56612;52.030;113.524;2023-03-12T09:03:38;8.18;;;3.55;;
69419;SDS011;56612;52.030;113.524;2023-03-12T09:06:43;9.00;;;3.35;;
69419;SDS011;56612;52.030;113.524;2023-03-12T09:09:47;12.90;;;4.17;;
69419;SDS011;56612;52.030;113.524;2023-03-12T09:12:50;14.80;;;4.00;;
69419;SDS011;56612;52.030;113.524;2023-03-12T09:15:57;11.70;;;3.67;;
69419;SDS011;56612;52.030;113.524;2023-03-12T09:19:02;10.82;;;3.67;;
69419;SDS011;56612;52.030;113.524;2023-03-12T09:22:06;14.73;;;3.33;;
69419;SDS011;56612;52.030;113.524;2023-03-12T09:25:11;10.10;;;3.73;;
69419;SDS011;56612;52.030;113.524;2023-03-12T09:28:14;9.20;;;3.20;;
69419;SDS011;56612;52.030;113.524;2023-03-12T09:31:18;10.75;;;3.00;;
69419;SDS011;56612;52.030;113.524;2023-03-12T09:34:22;10.45;;;3.30;;
69419;SDS011;56612;52.030;113.524;2023-03-12T09:37:26;10.43;;;3.63;;
69419;SDS011;56612;52.030;113.524;2023-03-12T09:40:31;13.90;;;3.80;;
69419;SDS011;56612;52.030;113.524;2023-03-12T09:43:39;11.50;;;3.60;;
69419;SDS011;56612;52.030;113.524;2023-03-12T09:46:51;11.02;;;3.75;;
69419;SDS011;56612;52.030;113.524;2023-03-12T09:50:20;14.93;;;3.55;;
69419;SDS011;56612;52.030;113.524;2023-03-12T09:53:36;11.65;;;3.42;;
69419;SDS011;56612;52.030;113.524;2023-03-12T09:56:53;12.63;;;3.73;;
69419;SDS011;56612;52.030;113.524;2023-03-12T10:00:00;11.00;;;3.50;;
69419;SDS011;56612;52.030;113.524;2023-03-12T10:03:18;9.82;;;3.20;;
69419;SDS011;56612;52.030;113.524;2023-03-12T10:24:36;17.40;;;5.40;;
69419;SDS011;56612;52.030;113.524;2023-03-12T10:27:42;27.05;;;7.15;;
69419;SDS011;56612;52.030;113.524;2023-03-12T10:30:56;18.20;;;3.83;;
69419;SDS011;56612;52.030;113.524;2023-03-12T10:34:07;20.10;;;6.23;;
69419;SDS011;56612;52.030;113.524;2023-03-12T10:37:25;20.98;;;6.65;;
69419;SDS011;56612;52.030;113.524;2023-03-12T10:40:36;20.10;;;7.13;;
69419;SDS011;56612;52.030;113.524;2023-03-12T10:43:42;5.68;;;1.92;;
69419;SDS011;56612;52.030;113.524;2023-03-12T10:46:50;6.87;;;1.10;;
69419;SDS011;56612;52.030;113.524;2023-03-12T10:50:10;8.67;;;1.43;;
69419;SDS011;56612;52.030;113.524;2023-03-12T10:54:01;10.07;;;1.17;;
69419;SDS011;56612;52.030;113.524;2023-03-12T10:56:47;5.45;;;1.38;;
69419;SDS011;56612;52.030;113.524;2023-03-12T10:59:52;8.38;;;1.70;;
69419;SDS011;56612;52.030;113.524;2023-03-12T11:03:18;7.30;;;1.97;;
69419;SDS011;56612;52.030;113.524;2023-03-12T11:06:24;5.53;;;1.60;;
69419;SDS011;56612;52.030;113.524;2023-03-12T11:09:29;6.93;;;1.77;;
69419;SDS011;56612;52.030;113.524;2023-03-12T11:12:34;7.25;;;2.00;;
69419;SDS011;56612;52.030;113.524;2023-03-12T11:15:39;14.68;;;2.35;;
69419;SDS011;56612;52.030;113.524;2023-03-12T11:19:24;8.90;;;2.40;;
69419;SDS011;56612;52.030;113.524;2023-03-12T11:22:25;10.43;;;2.10;;
69419;SDS011;56612;52.030;113.524;2023-03-12T11:25:31;11.55;;;2.58;;
69419;SDS011;56612;52.030;113.524;2023-03-12T11:28:38;8.15;;;2.45;;
69419;SDS011;56612;52.030;113.524;2023-03-12T11:31:49;6.72;;;1.50;;
69419;SDS011;56612;52.030;113.524;2023-03-12T11:35:24;9.87;;;1.77;;
69419;SDS011;56612;52.030;113.524;2023-03-12T11:56:01;8.17;;;2.00;;
69419;SDS011;56612;52.030;113.524;2023-03-12T12:13:16;10.70;;;1.97;;
69419;SDS011;56612;52.030;113.524;2023-03-12T12:17:11;3.78;;;1.40;;
69419;SDS011;56612;52.030;113.524;2023-03-12T12:23:18;4.13;;;1.08;;
69419;SDS011;56612;52.030;113.524;2023-03-12T12:33:15;13.43;;;1.27;;
69419;SDS011;56612;52.030;113.524;2023-03-12T12:36:25;6.20;;;0.85;;
69419;SDS011;56612;52.030;113.524;2023-03-12T12:39:32;5.70;;;1.20;;
69419;SDS011;56612;52.030;113.524;2023-03-12T12:42:48;4.83;;;0.87;;
69419;SDS011;56612;52.030;113.524;2023-03-12T12:45:56;10.43;;;0.97;;
69419;SDS011;56612;52.030;113.524;2023-03-12T12:52:24;5.63;;;1.00;;
69419;SDS011;56612;52.030;113.524;2023-03-12T12:55:48;4.22;;;1.40;;
69419;SDS011;56612;52.030;113.524;2023-03-12T13:00:23;4.27;;;0.90;;
69419;SDS011;56612;52.030;113.524;2023-03-12T13:03:19;18.37;;;2.33;;
69419;SDS011;56612;52.030;113.524;2023-03-12T13:06:28;13.45;;;1.73;;
69419;SDS011;56612;52.030;113.524;2023-03-12T13:09:53;11.68;;;0.90;;
69419;SDS011;56612;52.030;113.524;2023-03-12T13:13:20;8.80;;;1.20;;
69419;SDS011;56612;52.030;113.524;2023-03-12T13:19:45;4.72;;;0.85;;
69419;SDS011;56612;52.030;113.524;2023-03-12T13:23:18;9.20;;;1.10;;
69419;SDS011;56612;52.030;113.524;2023-03-12T13:29:41;3.63;;;0.68;;
69419;SDS011;56612;52.030;113.524;2023-03-12T13:36:02;4.90;;;0.73;;
69419;SDS011;56612;52.030;113.524;2023-03-12T13:42:37;3.45;;;0.70;;
69419;SDS011;56612;52.030;113.524;2023-03-12T13:49:09;4.83;;;1.20;;
69419;SDS011;56612;52.030;113.524;2023-03-12T13:52:25;4.70;;;0.85;;
69419;SDS011;56612;52.030;113.524;2023-03-12T13:55:33;6.50;;;0.75;;
69419;SDS011;56612;52.030;113.524;2023-03-12T14:02:07;2.38;;;0.60;;
69419;SDS011;56612;52.030;113.524;2023-03-12T14:05:23;4.37;;;1.00;;
69419;SDS011;56612;52.030;113.524;2023-03-12T14:08:32;5.50;;;1.00;;
69419;SDS011;56612;52.030;113.524;2023-03-12T14:11:55;6.28;;;0.60;;
69419;SDS011;56612;52.030;113.524;2023-03-12T14:15:33;2.50;;;0.60;;
69419;SDS011;56612;52.030;113.524;2023-03-12T14:18:50;3.53;;;0.75;;
69419;SDS011;56612;52.030;113.524;2023-03-12T14:21:55;2.00;;;0.67;;
69419;SDS011;56612;52.030;113.524;2023-03-12T14:25:48;4.97;;;0.73;;
69419;SDS011;56612;52.030;113.524;2023-03-12T14:28:41;4.72;;;1.27;;
69419;SDS011;56612;52.030;113.524;2023-03-12T14:31:45;17.52;;;1.02;;
69419;SDS011;56612;52.030;113.524;2023-03-12T14:34:51;5.80;;;1.00;;
69419;SDS011;56612;52.030;113.524;2023-03-12T14:41:30;4.97;;;1.05;;
69419;SDS011;56612;52.030;113.524;2023-03-12T14:44:38;5.55;;;0.50;;
69419;SDS011;56612;52.030;113.524;2023-03-12T14:47:42;3.05;;;0.60;;
69419;SDS011;56612;52.030;113.524;2023-03-12T14:50:47;8.52;;;0.70;;
69419;SDS011;56612;52.030;113.524;2023-03-12T14:53:52;4.90;;;0.90;;
69419;SDS011;56612;52.030;113.524;2023-03-12T14:56:56;4.50;;;0.80;;
69419;SDS011;56612;52.030;113.524;2023-03-12T15:00:00;3.05;;;0.70;;
69419;SDS011;56612;52.030;113.524;2023-03-12T15:03:05;5.13;;;1.17;;
69419;SDS011;56612;52.030;113.524;2023-03-12T15:06:18;6.05;;;1.15;;
69419;SDS011;56612;52.030;113.524;2023-03-12T15:09:33;6.73;;;0.97;;
69419;SDS011;56612;52.030;113.524;2023-03-12T15:12:38;6.75;;;1.00;;
69419;SDS011;56612;52.030;113.524;2023-03-12T15:15:46;3.05;;;0.60;;
69419;SDS011;56612;52.030;113.524;2023-03-12T15:18:53;3.25;;;0.80;;
69419;SDS011;56612;52.030;113.524;2023-03-12T15:21:58;2.38;;;0.60;;
69419;SDS011;56612;52.030;113.524;2023-03-12T15:25:25;4.10;;;0.93;;
69419;SDS011;56612;52.030;113.524;2023-03-12T15:28:31;4.30;;;1.05;;
69419;SDS011;56612;52.030;113.524;2023-03-12T15:34:49;2.50;;;0.70;;
69419;SDS011;56612;52.030;113.524;2023-03-12T15:37:54;2.03;;;0.55;;
69419;SDS011;56612;52.030;113.524;2023-03-12T15:41:00;2.00;;;0.50;;
69419;SDS011;56612;52.030;113.524;2023-03-12T15:44:13;3.25;;;0.80;;
69419;SDS011;56612;52.030;113.524;2023-03-12T15:47:25;1.65;;;0.30;;
69419;SDS011;56612;52.030;113.524;2023-03-12T15:50:33;4.82;;;0.47;;
69419;SDS011;56612;52.030;113.524;2023-03-12T15:53:57;4.95;;;0.70;;
69419;SDS011;56612;52.030;113.524;2023-03-12T15:57:43;3.13;;;0.63;;
69419;SDS011;56612;52.030;113.524;2023-03-12T16:00:43;3.78;;;0.70;;
69419;SDS011;56612;52.030;113.524;2023-03-12T16:03:47;2.22;;;0.50;;
69419;SDS011;56612;52.030;113.524;2023-03-12T16:06:50;5.97;;;0.82;;
69419;SDS011;56612;52.030;113.524;2023-03-12T16:09:55;4.50;;;0.65;;
69419;SDS011;56612;52.030;113.524;2023-03-12T16:13:00;3.20;;;0.60;;
69419;SDS011;56612;52.030;113.524;2023-03-12T16:16:07;4.13;;;0.52;;
69419;SDS011;56612;52.030;113.524;2023-03-12T16:19:14;3.45;;;1.23;;
69419;SDS011;56612;52.030;113.524;2023-03-12T16:22:21;8.52;;;1.00;;
69419;SDS011;56612;52.030;113.524;2023-03-12T16:25:24;6.13;;;0.93;;
69419;SDS011;56612;52.030;113.524;2023-03-12T16:28:28;7.20;;;1.40;;
69419;SDS011;56612;52.030;113.524;2023-03-12T16:31:32;4.32;;;1.00;;
69419;SDS011;56612;52.030;113.524;2023-03-12T16:34:36;3.72;;;0.90;;
69419;SDS011;56612;52.030;113.524;2023-03-12T16:37:39;2.83;;;0.50;;
69419;SDS011;56612;52.030;113.524;2023-03-12T16:40:44;11.98;;;0.68;;
69419;SDS011;56612;52.030;113.524;2023-03-12T16:43:50;2.97;;;0.77;;
69419;SDS011;56612;52.030;113.524;2023-03-12T16:46:55;8.02;;;0.60;;
69419;SDS011;56612;52.030;113.524;2023-03-12T16:49:58;2.55;;;0.45;;
69419;SDS011;56612;52.030;113.524;2023-03-12T16:53:02;3.45;;;0.57;;
69419;SDS011;56612;52.030;113.524;2023-03-12T16:56:06;5.20;;;1.08;;
69419;SDS011;56612;52.030;113.524;2023-03-12T16:59:24;2.67;;;0.60;;
69419;SDS011;56612;52.030;113.524;2023-03-12T17:02:30;2.05;;;0.60;;
69419;SDS011;56612;52.030;113.524;2023-03-12T17:05:34;2.72;;;0.40;;
69419;SDS011;56612;52.030;113.524;2023-03-12T17:08:38;4.18;;;0.90;;
69419;SDS011;56612;52.030;113.524;2023-03-12T17:11:41;2.97;;;0.43;;
69419;SDS011;56612;52.030;113.524;2023-03-12T17:14:44;3.77;;;0.70;;
69419;SDS011;56612;52.030;113.524;2023-03-12T17:17:48;2.83;;;0.40;;
69419;SDS011;56612;52.030;113.524;2023-03-12T17:20:51;2.63;;;0.40;;
69419;SDS011;56612;52.030;113.524;2023-03-12T17:23:55;4.13;;;0.68;;
69419;SDS011;56612;52.030;113.524;2023-03-12T17:26:58;2.80;;;0.70;;
69419;SDS011;56612;52.030;113.524;2023-03-12T17:30:02;2.40;;;0.63;;
69419;SDS011;56612;52.030;113.524;2023-03-12T17:33:10;2.47;;;0.55;;
69419;SDS011;56612;52.030;113.524;2023-03-12T17:36:15;3.20;;;0.55;;
69419;SDS011;56612;52.030;113.524;2023-03-12T17:39:19;3.45;;;0.40;;
69419;SDS011;56612;52.030;113.524;2023-03-12T17:42:23;1.98;;;0.50;;
69419;SDS011;56612;52.030;113.524;2023-03-12T17:45:27;2.43;;;0.40;;
69419;SDS011;56612;52.030;113.524;2023-03-12T17:48:31;2.75;;;0.60;;
69419;SDS011;56612;52.030;113.524;2023-03-12T17:51:34;3.60;;;0.60;;
69419;SDS011;56612;52.030;113.524;2023-03-12T17:54:37;2.17;;;0.50;;
69419;SDS011;56612;52.030;113.524;2023-03-12T17:57:41;2.92;;;0.65;;
69419;SDS011;56612;52.030;113.524;2023-03-12T18:00:45;3.90;;;1.03;;
69419;SDS011;56612;52.030;113.524;2023-03-12T18:03:49;9.25;;;0.70;;
69419;SDS011;56612;52.030;113.524;2023-03-12T18:06:53;3.58;;;0.50;;
69419;SDS011;56612;52.030;113.524;2023-03-12T18:09:56;2.88;;;0.60;;
69419;SDS011;56612;52.030;113.524;2023-03-12T18:13:00;2.60;;;0.52;;
69419;SDS011;56612;52.030;113.524;2023-03-12T18:16:03;4.63;;;0.70;;
69419;SDS011;56612;52.030;113.524;2023-03-12T18:19:06;2.50;;;0.57;;
69419;SDS011;56612;52.030;113.524;2023-03-12T18:22:09;2.13;;;0.50;;
69419;SDS011;56612;52.030;113.524;2023-03-12T18:25:16;4.05;;;0.50;;
69419;SDS011;56612;52.030;113.524;2023-03-12T18:28:19;2.58;;;0.50;;
69419;SDS011;56612;52.030;113.524;2023-03-12T18:31:24;2.00;;;0.50;;
69419;SDS011;56612;52.030;113.524;2023-03-12T18:34:27;2.97;;;0.63;;
69419;SDS011;56612;52.030;113.524;2023-03-12T18:37:30;5.05;;;0.60;;
69419;SDS011;56612;52.030;113.524;2023-03-12T18:40:34;3.20;;;0.75;;
69419;SDS011;56612;52.030;113.524;2023-03-12T18:43:37;6.43;;;0.85;;
69419;SDS011;56612;52.030;113.524;2023-03-12T18:46:42;3.27;;;0.70;;
69419;SDS011;56612;52.030;113.524;2023-03-12T18:49:45;7.70;;;0.70;;
69419;SDS011;56612;52.030;113.524;2023-03-12T18:52:48;2.80;;;0.60;;
69419;SDS011;56612;52.030;113.524;2023-03-12T18:55:52;3.33;;;0.55;;
69419;SDS011;56612;52.030;113.524;2023-03-12T18:58:57;5.68;;;0.73;;
69419;SDS011;56612;52.030;113.524;2023-03-12T19:02:01;2.70;;;0.57;;
69419;SDS011;56612;52.030;113.524;2023-03-12T19:05:04;4.03;;;0.63;;
69419;SDS011;56612;52.030;113.524;2023-03-12T19:08:09;4.07;;;0.60;;
69419;SDS011;56612;52.030;113.524;2023-03-12T19:11:13;3.40;;;0.60;;
69419;SDS011;56612;52.030;113.524;2023-03-12T19:14:17;3.72;;;0.50;;
69419;SDS011;56612;52.030;113.524;2023-03-12T19:17:20;1.83;;;0.30;;
69419;SDS011;56612;52.030;113.524;2023-03-12T19:20:26;3.35;;;1.33;;
69419;SDS011;56612;52.030;113.524;2023-03-12T19:23:30;3.40;;;0.75;;
69419;SDS011;56612;52.030;113.524;2023-03-12T19:26:34;2.80;;;0.40;;
69419;SDS011;56612;52.030;113.524;2023-03-12T19:29:38;1.42;;;0.30;;
69419;SDS011;56612;52.030;113.524;2023-03-12T19:32:42;2.17;;;0.40;;
69419;SDS011;56612;52.030;113.524;2023-03-12T19:35:46;3.05;;;0.38;;
69419;SDS011;56612;52.030;113.524;2023-03-12T19:38:50;1.58;;;0.40;;
69419;SDS011;56612;52.030;113.524;2023-03-12T19:41:53;2.45;;;0.47;;
69419;SDS011;56612;52.030;113.524;2023-03-12T19:44:56;1.42;;;0.32;;
69419;SDS011;56612;52.030;113.524;2023-03-12T19:47:59;5.17;;;0.50;;